Time;durP1;ratioP1;P1;durP2;ratioP2;P2;SDS_P1;SDS_P2;PMS_P1;PMS_P2;Temp;Humidity;BMP_temperature;BMP_pressure;BME280_temperature;BME280_humidity;BME280_pressure;Samples;Min_cycle;Max_cycle;Signal;HPM_P1;HPM_P2
2022/04/05 00:00:36;;;;;;;7.50;1.65;;;7.00;99.90;;;;;;4988521;28;20061;-78
2022/04/05 00:03:02;;;;;;;6.15;1.20;;;7.00;99.90;;;;;;4988627;28;20128;-78
2022/04/05 00:05:27;;;;;;;9.13;1.40;;;7.00;99.90;;;;;;4986665;28;20137;-77
2022/04/05 00:07:54;;;;;;;5.05;1.23;;;7.00;99.90;;;;;;4970339;28;20057;-77
2022/04/05 00:10:21;;;;;;;4.05;1.42;;;7.00;99.90;;;;;;4986192;28;20065;-78
2022/04/05 00:12:47;;;;;;;7.25;2.05;;;7.00;99.90;;;;;;4985711;28;20085;-77
2022/04/05 00:15:13;;;;;;;8.52;1.42;;;7.00;99.90;;;;;;4969955;28;20085;-78
2022/04/05 00:17:39;;;;;;;4.90;1.23;;;7.00;99.90;;;;;;4969791;28;20093;-76
2022/04/05 00:20:07;;;;;;;9.93;1.40;;;7.00;99.90;;;;;;4986559;28;20423;-77
2022/04/05 00:22:33;;;;;;;5.28;1.25;;;7.00;99.90;;;;;;4985642;28;20113;-77
2022/04/05 00:24:59;;;;;;;6.72;1.50;;;7.00;99.90;;;;;;4954526;28;20054;-77
2022/04/05 00:27:24;;;;;;;5.47;1.30;;;7.00;99.90;;;;;;4953351;28;20094;-77
2022/04/05 00:29:50;;;;;;;7.05;1.40;;;7.10;99.90;;;;;;4985244;28;20053;-77
2022/04/05 00:32:16;;;;;;;7.80;1.77;;;7.30;99.90;;;;;;4968516;28;20057;-77
2022/04/05 00:34:41;;;;;;;9.93;1.75;;;7.10;99.90;;;;;;4986410;28;20487;-77
2022/04/05 00:37:07;;;;;;;10.18;1.77;;;7.10;99.90;;;;;;4954110;28;20042;-77
2022/04/05 00:39:33;;;;;;;6.13;1.40;;;7.10;99.90;;;;;;4986609;28;20120;-77
2022/04/05 00:41:59;;;;;;;8.27;1.50;;;7.10;99.90;;;;;;4987348;28;20050;-77
2022/04/05 00:44:25;;;;;;;7.35;1.70;;;7.50;99.90;;;;;;4946152;28;20042;-77
2022/04/05 00:46:53;;;;;;;6.78;1.70;;;7.10;99.90;;;;;;4971235;28;20108;-77
2022/04/05 00:49:32;;;;;;;5.38;1.33;;;7.10;99.90;;;;;;4984989;28;20046;-77
2022/04/05 00:51:58;;;;;;;7.93;1.48;;;7.60;99.90;;;;;;4985185;28;20153;-77
2022/04/05 00:54:26;;;;;;;7.03;1.50;;;7.10;99.90;;;;;;4968995;28;20535;-77
2022/04/05 00:56:56;;;;;;;8.10;1.77;;;7.10;99.90;;;;;;4985308;28;20074;-77
2022/04/05 00:59:23;;;;;;;6.95;1.70;;;7.10;99.90;;;;;;4986813;28;20852;-77
2022/04/05 01:01:50;;;;;;;8.07;1.92;;;7.10;99.90;;;;;;4971097;28;20078;-77
2022/04/05 01:04:16;;;;;;;7.32;1.70;;;7.20;99.90;;;;;;4970071;28;20778;-77
2022/04/05 01:06:45;;;;;;;9.48;2.05;;;7.80;99.90;;;;;;4954539;28;20130;-77
2022/04/05 01:09:11;;;;;;;7.28;1.55;;;7.20;99.90;;;;;;4986282;28;20496;-77
2022/04/05 01:11:37;;;;;;;11.68;1.73;;;8.00;99.90;;;;;;4954184;28;20066;-76
2022/04/05 01:14:04;;;;;;;5.97;1.45;;;7.20;99.90;;;;;;4986062;28;20488;-76
2022/04/05 01:16:31;;;;;;;8.20;1.50;;;7.20;99.90;;;;;;4953547;28;20554;-77
2022/04/05 01:18:57;;;;;;;7.13;1.90;;;7.10;99.90;;;;;;4970613;28;20051;-77
2022/04/05 01:21:23;;;;;;;6.90;1.63;;;7.10;99.90;;;;;;4987245;28;20124;-77
2022/04/05 01:24:08;;;;;;;8.32;1.50;;;7.10;99.90;;;;;;4954351;28;20491;-77
2022/04/05 01:26:45;;;;;;;6.63;1.40;;;7.10;99.90;;;;;;4986659;28;20057;-77
2022/04/05 01:29:12;;;;;;;10.57;1.52;;;7.10;99.90;;;;;;4970113;28;20042;-77
2022/04/05 01:31:46;;;;;;;7.68;1.67;;;7.10;99.90;;;;;;4971429;28;20050;-77
2022/04/05 01:34:13;;;;;;;4.78;1.73;;;7.30;99.90;;;;;;4985705;28;20476;-77
2022/04/05 01:36:50;;;;;;;8.95;1.50;;;7.00;99.90;;;;;;4986860;28;20091;-78
2022/04/05 01:39:18;;;;;;;8.23;1.60;;;7.10;99.90;;;;;;4984893;28;20058;-77
2022/04/05 01:41:45;;;;;;;7.38;1.45;;;7.00;99.90;;;;;;4986627;28;20062;-76
2022/04/05 01:44:13;;;;;;;8.93;1.30;;;7.10;99.90;;;;;;4951240;28;20400;-77
2022/04/05 01:46:39;;;;;;;6.88;1.75;;;7.60;99.90;;;;;;4973705;28;20049;-77
2022/04/05 01:49:10;;;;;;;7.30;1.52;;;7.00;99.90;;;;;;4941426;28;20046;-77
2022/04/05 01:51:37;;;;;;;7.38;1.40;;;7.00;99.90;;;;;;4989117;28;20058;-77
2022/04/05 01:54:07;;;;;;;7.03;1.45;;;7.30;99.90;;;;;;4972994;28;20061;-77
2022/04/05 01:56:39;;;;;;;9.20;1.45;;;7.00;99.90;;;;;;4989250;28;20279;-75
2022/04/05 01:59:05;;;;;;;4.82;1.20;;;7.00;99.90;;;;;;4973023;28;20052;-76
2022/04/05 02:01:31;;;;;;;8.20;1.45;;;7.50;99.90;;;;;;4986668;28;20046;-76
2022/04/05 02:03:57;;;;;;;6.65;1.30;;;7.00;99.90;;;;;;4954975;28;20052;-75
2022/04/05 02:06:24;;;;;;;9.07;1.45;;;7.20;99.90;;;;;;4987703;28;20050;-76
2022/04/05 02:08:50;;;;;;;10.70;1.58;;;7.00;99.90;;;;;;4973243;28;20054;-76
2022/04/05 02:11:16;;;;;;;6.60;1.73;;;7.00;99.90;;;;;;4989281;28;20226;-79
2022/04/05 02:13:42;;;;;;;6.30;1.75;;;7.10;99.90;;;;;;4972639;28;20081;-75
2022/04/05 02:16:08;;;;;;;8.38;1.50;;;7.20;99.90;;;;;;4973043;28;20078;-78
2022/04/05 02:18:37;;;;;;;6.93;1.35;;;7.10;99.90;;;;;;4987182;28;20058;-78
2022/04/05 02:21:05;;;;;;;9.35;1.50;;;7.00;99.90;;;;;;4989209;28;20046;-78
2022/04/05 02:23:31;;;;;;;7.43;1.40;;;7.10;99.90;;;;;;4972440;28;20093;-78
2022/04/05 02:25:57;;;;;;;5.88;1.33;;;7.10;99.90;;;;;;4989366;28;20496;-78
2022/04/05 02:28:23;;;;;;;6.03;1.45;;;7.10;99.90;;;;;;4989934;28;21998;-77
2022/04/05 02:30:49;;;;;;;8.57;1.48;;;7.00;99.90;;;;;;4975577;28;20143;-77
2022/04/05 02:33:15;;;;;;;5.53;1.63;;;7.00;99.90;;;;;;4971762;28;20417;-77
2022/04/05 02:35:42;;;;;;;6.60;1.20;;;7.00;99.90;;;;;;4972497;28;20144;-78
2022/04/05 02:38:07;;;;;;;9.25;1.63;;;7.00;99.90;;;;;;4989425;28;20045;-77
2022/04/05 02:40:33;;;;;;;8.43;1.30;;;7.00;99.90;;;;;;4956391;28;20397;-78
2022/04/05 02:42:59;;;;;;;8.65;1.40;;;6.90;99.90;;;;;;4957203;28;20050;-77
2022/04/05 02:45:25;;;;;;;6.75;1.60;;;6.90;99.90;;;;;;4973236;28;20050;-77
2022/04/05 02:47:50;;;;;;;8.77;1.55;;;6.90;99.90;;;;;;4973949;28;20882;-77
2022/04/05 02:50:18;;;;;;;6.93;1.40;;;6.90;99.90;;;;;;4988687;28;20585;-78
2022/04/05 02:52:48;;;;;;;5.93;1.20;;;6.90;99.90;;;;;;4972215;28;20054;-77
2022/04/05 02:55:15;;;;;;;6.28;1.40;;;7.50;99.90;;;;;;4988806;28;20054;-77
2022/04/05 02:57:42;;;;;;;5.93;1.20;;;6.90;99.90;;;;;;4988781;28;20050;-77
2022/04/05 03:00:10;;;;;;;7.75;1.10;;;6.90;99.90;;;;;;4988456;28;20045;-77
2022/04/05 03:02:36;;;;;;;8.52;1.50;;;7.00;99.90;;;;;;4971707;28;20042;-77
2022/04/05 03:05:05;;;;;;;6.38;1.40;;;7.00;99.90;;;;;;4989016;28;20046;-77
2022/04/05 03:07:31;;;;;;;7.80;1.25;;;7.00;99.90;;;;;;4988549;28;20499;-77
2022/04/05 03:09:56;;;;;;;7.13;1.35;;;7.00;99.90;;;;;;4972122;28;20049;-77
2022/04/05 03:12:22;;;;;;;6.28;1.38;;;7.00;99.90;;;;;;4988567;28;20048;-78
2022/04/05 03:14:48;;;;;;;4.70;1.23;;;7.00;99.90;;;;;;4951136;28;20046;-77
2022/04/05 03:17:13;;;;;;;5.57;1.50;;;7.00;99.90;;;;;;4955330;28;20090;-77
2022/04/05 03:19:39;;;;;;;6.55;1.45;;;7.00;99.90;;;;;;4963344;28;20088;-77
2022/04/05 03:22:11;;;;;;;6.13;1.38;;;6.90;99.90;;;;;;4972082;28;20089;-77
2022/04/05 03:24:37;;;;;;;5.20;1.75;;;6.90;99.90;;;;;;4986747;28;20046;-77
2022/04/05 03:27:03;;;;;;;6.63;1.25;;;6.90;99.90;;;;;;4973207;28;20042;-77
2022/04/05 03:29:29;;;;;;;5.93;1.30;;;6.90;99.90;;;;;;4950605;28;20045;-76
2022/04/05 03:31:55;;;;;;;6.18;1.55;;;6.90;99.90;;;;;;4987849;28;20092;-75
2022/04/05 03:34:21;;;;;;;8.50;1.13;;;6.90;99.90;;;;;;4988050;28;20053;-76
2022/04/05 03:36:47;;;;;;;4.65;1.33;;;6.90;99.90;;;;;;4988166;28;20054;-77
2022/04/05 03:39:14;;;;;;;6.30;1.23;;;6.90;99.90;;;;;;4987161;28;20042;-77
2022/04/05 03:41:44;;;;;;;5.25;1.13;;;6.90;99.90;;;;;;4987689;28;20387;-76
2022/04/05 03:44:10;;;;;;;6.22;1.13;;;6.90;99.90;;;;;;4986737;28;20046;-78
2022/04/05 03:46:36;;;;;;;5.10;1.30;;;6.90;99.90;;;;;;4954361;28;20042;-76
2022/04/05 03:49:03;;;;;;;4.63;1.20;;;7.00;99.90;;;;;;4987778;28;20042;-76
2022/04/05 03:51:29;;;;;;;3.20;1.08;;;6.90;99.90;;;;;;4965525;28;20130;-76
2022/04/05 03:53:55;;;;;;;4.63;1.23;;;6.80;99.90;;;;;;4954639;28;20509;-76
2022/04/05 03:56:21;;;;;;;5.28;1.20;;;6.80;99.90;;;;;;4955807;28;20053;-76
2022/04/05 03:58:48;;;;;;;3.25;1.20;;;6.80;99.90;;;;;;4987084;28;20043;-76
2022/04/05 04:01:14;;;;;;;3.72;1.25;;;6.80;99.90;;;;;;4986681;28;20042;-76
2022/04/05 04:03:39;;;;;;;5.07;1.10;;;6.70;99.90;;;;;;4969962;28;20046;-76
2022/04/05 04:06:05;;;;;;;3.10;1.08;;;6.70;99.90;;;;;;4986901;28;20089;-76
2022/04/05 04:08:31;;;;;;;3.90;1.20;;;6.70;99.90;;;;;;4939931;28;20057;-76
2022/04/05 04:10:57;;;;;;;8.07;1.35;;;6.70;99.90;;;;;;4955863;28;20074;-76
2022/04/05 04:13:22;;;;;;;4.80;1.10;;;6.70;99.90;;;;;;4971815;28;20082;-78
2022/04/05 04:15:48;;;;;;;5.78;1.38;;;6.80;99.90;;;;;;4988154;28;20054;-77
2022/04/05 04:18:14;;;;;;;5.10;1.20;;;6.80;99.90;;;;;;4985591;28;20050;-76
2022/04/05 04:20:43;;;;;;;3.75;1.40;;;6.70;99.90;;;;;;4985028;28;20056;-77
2022/04/05 04:23:10;;;;;;;5.60;1.48;;;6.70;99.90;;;;;;4954102;28;20086;-77
2022/04/05 04:25:37;;;;;;;7.97;1.58;;;6.80;99.90;;;;;;4985321;28;20081;-77
2022/04/05 04:28:07;;;;;;;5.53;1.63;;;6.80;99.90;;;;;;4988657;28;20097;-77
2022/04/05 04:30:34;;;;;;;5.78;1.40;;;6.70;99.90;;;;;;4987377;28;20065;-78
2022/04/05 04:33:00;;;;;;;7.78;1.40;;;6.70;99.90;;;;;;4955693;28;20077;-77
2022/04/05 04:35:26;;;;;;;5.57;1.15;;;6.70;99.90;;;;;;4987965;28;20050;-78
2022/04/05 04:37:52;;;;;;;6.90;1.50;;;6.70;99.90;;;;;;4988016;28;20088;-77
2022/04/05 04:40:18;;;;;;;3.90;1.30;;;6.70;99.90;;;;;;4986465;28;20078;-77
2022/04/05 04:42:44;;;;;;;7.57;1.42;;;6.70;99.90;;;;;;4985602;28;20130;-77
2022/04/05 04:45:11;;;;;;;8.10;1.33;;;6.70;99.90;;;;;;4970824;28;20065;-77
2022/04/05 04:47:37;;;;;;;7.72;1.48;;;6.60;99.90;;;;;;4962337;28;20046;-77
2022/04/05 04:50:04;;;;;;;5.32;1.25;;;6.70;99.90;;;;;;4955493;28;20046;-77
2022/04/05 04:52:30;;;;;;;4.95;1.20;;;6.70;99.90;;;;;;4987638;28;20394;-78
2022/04/05 04:54:55;;;;;;;4.43;1.33;;;6.70;99.90;;;;;;4955586;28;20050;-77
2022/04/05 04:57:23;;;;;;;4.50;1.25;;;6.60;99.90;;;;;;4971393;28;20042;-77
2022/04/05 04:59:49;;;;;;;5.28;1.38;;;6.60;99.90;;;;;;4986094;28;20137;-78
2022/04/05 05:02:15;;;;;;;8.23;1.45;;;6.60;99.90;;;;;;4971206;28;20058;-77
2022/04/05 05:04:41;;;;;;;7.45;2.03;;;6.60;99.90;;;;;;4986854;28;20058;-77
2022/04/05 05:07:07;;;;;;;3.13;1.30;;;6.60;99.90;;;;;;4971786;28;20046;-77
2022/04/05 05:09:33;;;;;;;10.13;1.50;;;6.60;99.90;;;;;;4955027;28;20050;-77
2022/04/05 05:12:00;;;;;;;4.78;1.25;;;6.60;99.90;;;;;;5003298;28;20050;-77
2022/04/05 05:14:27;;;;;;;5.75;1.20;;;6.60;99.90;;;;;;4955168;28;20053;-78
2022/04/05 05:16:54;;;;;;;4.95;1.15;;;6.60;99.90;;;;;;4988530;28;20093;-78
2022/04/05 05:19:23;;;;;;;4.55;1.20;;;6.60;99.90;;;;;;4974688;28;20055;-77
2022/04/05 05:21:49;;;;;;;9.20;1.40;;;6.50;99.90;;;;;;4982304;28;20577;-77
2022/04/05 05:24:14;;;;;;;4.93;1.33;;;6.60;99.90;;;;;;4991265;28;20061;-77
2022/04/05 05:26:40;;;;;;;4.43;1.25;;;6.60;99.90;;;;;;4990720;28;20054;-78
2022/04/05 05:29:06;;;;;;;8.10;1.55;;;6.60;99.90;;;;;;4974638;28;20057;-77
2022/04/05 05:31:32;;;;;;;8.60;1.30;;;6.60;99.90;;;;;;4952899;28;20097;-78
2022/04/05 05:33:57;;;;;;;5.97;1.45;;;6.60;99.90;;;;;;4974032;28;20057;-78
2022/04/05 05:36:23;;;;;;;7.13;1.13;;;6.60;99.90;;;;;;4974030;28;20058;-77
2022/04/05 05:38:49;;;;;;;5.30;1.23;;;6.60;99.90;;;;;;4974085;28;20441;-76
2022/04/05 05:41:15;;;;;;;9.23;1.45;;;6.60;99.90;;;;;;4991061;28;20057;-77
2022/04/05 05:43:45;;;;;;;3.72;1.00;;;7.00;99.90;;;;;;4973351;28;20416;-77
2022/04/05 05:46:11;;;;;;;4.05;1.30;;;6.60;99.90;;;;;;4991358;28;20054;-78
2022/04/05 05:48:37;;;;;;;4.85;1.08;;;6.60;99.90;;;;;;4957804;28;20464;-79
2022/04/05 05:51:03;;;;;;;2.95;1.00;;;6.60;99.90;;;;;;4991852;28;20153;-79
2022/04/05 05:53:29;;;;;;;10.93;1.30;;;6.60;99.90;;;;;;4957604;28;20054;-79
2022/04/05 05:55:55;;;;;;;5.88;1.13;;;6.60;99.90;;;;;;4990801;28;20407;-79
2022/04/05 05:58:20;;;;;;;4.47;1.05;;;6.60;99.90;;;;;;4967667;28;20546;-80
2022/04/05 06:00:46;;;;;;;5.38;1.40;;;7.00;99.90;;;;;;4958225;28;20053;-80
2022/04/05 06:03:12;;;;;;;5.18;1.08;;;6.60;99.90;;;;;;4935468;28;20468;-80
2022/04/05 06:05:38;;;;;;;4.00;1.25;;;6.70;99.90;;;;;;4972777;28;20056;-78
2022/04/05 06:08:07;;;;;;;4.68;1.20;;;6.60;99.90;;;;;;4990049;28;20046;-79
2022/04/05 06:10:33;;;;;;;5.93;1.20;;;6.70;99.90;;;;;;4989446;28;20061;-79
2022/04/05 06:12:59;;;;;;;2.75;1.10;;;6.70;99.90;;;;;;4988795;28;20042;-78
2022/04/05 06:15:26;;;;;;;5.47;1.42;;;6.70;99.90;;;;;;4949974;28;20049;-77
2022/04/05 06:17:53;;;;;;;3.70;1.30;;;6.70;99.90;;;;;;4985838;28;20108;-77
2022/04/05 06:20:20;;;;;;;6.03;1.15;;;7.10;99.90;;;;;;4988733;28;20042;-78
2022/04/05 06:22:51;;;;;;;8.07;1.25;;;6.80;99.90;;;;;;4948035;28;20069;-77
2022/04/05 06:25:23;;;;;;;9.95;1.77;;;6.80;99.90;;;;;;4970632;28;20046;-77
2022/04/05 06:27:49;;;;;;;5.00;1.20;;;6.80;99.90;;;;;;4963013;28;20124;-77
2022/04/05 06:30:16;;;;;;;3.53;1.05;;;6.80;99.90;;;;;;4970779;28;20052;-76
2022/04/05 06:32:43;;;;;;;5.47;1.00;;;6.70;99.90;;;;;;4985972;28;20057;-76
2022/04/05 06:35:11;;;;;;;4.97;1.30;;;6.80;99.90;;;;;;4972071;28;20054;-76
2022/04/05 06:37:37;;;;;;;4.78;1.60;;;6.80;99.90;;;;;;4971806;28;20054;-76
2022/04/05 06:40:05;;;;;;;5.18;1.20;;;6.80;99.90;;;;;;4989514;28;20361;-77
2022/04/05 06:42:31;;;;;;;4.25;1.30;;;6.80;99.90;;;;;;4955756;28;20058;-77
2022/04/05 06:44:57;;;;;;;6.82;1.55;;;7.10;99.90;;;;;;4971272;28;20046;-76
2022/04/05 06:47:23;;;;;;;7.25;1.52;;;6.80;99.90;;;;;;4971636;28;20186;-76
2022/04/05 06:49:49;;;;;;;8.63;1.33;;;6.80;99.90;;;;;;4969994;28;20046;-76
2022/04/05 06:52:15;;;;;;;5.53;1.13;;;6.80;99.90;;;;;;4985333;28;20380;-76
2022/04/05 06:54:41;;;;;;;6.28;1.30;;;6.80;99.90;;;;;;4985379;28;20129;-76
2022/04/05 06:57:07;;;;;;;5.38;1.10;;;6.80;99.90;;;;;;4988211;28;20499;-76
2022/04/05 06:59:32;;;;;;;3.53;1.08;;;6.80;99.90;;;;;;4987543;28;20065;-75
2022/04/05 07:01:58;;;;;;;2.65;0.80;;;6.80;99.90;;;;;;4954247;28;20128;-81
2022/04/05 07:04:24;;;;;;;2.70;1.20;;;7.00;99.90;;;;;;4970396;28;20479;-80
2022/04/05 07:06:50;;;;;;;3.28;0.82;;;6.80;99.90;;;;;;4969808;28;20174;-77
2022/04/05 07:09:16;;;;;;;3.10;1.10;;;6.80;99.90;;;;;;4985102;28;20046;-78
2022/04/05 07:11:42;;;;;;;4.63;1.20;;;6.10;99.90;;;;;;4984829;28;20053;-77
2022/04/05 07:14:08;;;;;;;3.60;1.00;;;6.90;99.90;;;;;;4986446;28;20058;-77
2022/04/05 07:16:33;;;;;;;2.38;1.00;;;6.90;99.90;;;;;;4987640;28;20050;-77
2022/04/05 07:18:59;;;;;;;5.00;0.88;;;6.90;99.90;;;;;;4940988;28;20085;-77
2022/04/05 07:21:26;;;;;;;2.42;0.77;;;6.90;99.90;;;;;;4970292;28;20484;-78
2022/04/05 07:23:52;;;;;;;2.35;1.00;;;6.90;99.90;;;;;;4979214;28;20042;-77
2022/04/05 07:26:21;;;;;;;5.43;1.35;;;7.00;99.90;;;;;;4986390;28;20056;-76
2022/04/05 07:28:48;;;;;;;4.60;1.30;;;7.10;99.90;;;;;;4978422;28;20058;-76
2022/04/05 07:31:14;;;;;;;3.67;1.30;;;7.40;99.90;;;;;;4985897;28;20050;-75
2022/04/05 07:33:40;;;;;;;4.10;1.30;;;7.50;99.90;;;;;;4960380;28;20574;-75
2022/04/05 07:36:06;;;;;;;3.20;1.23;;;7.20;99.90;;;;;;4970047;28;20082;-75
2022/04/05 07:38:31;;;;;;;5.45;1.20;;;7.30;99.90;;;;;;4971100;28;20078;-75
2022/04/05 07:40:57;;;;;;;2.88;1.10;;;7.40;99.90;;;;;;4968756;28;20082;-75
2022/04/05 07:43:25;;;;;;;3.00;1.00;;;7.50;99.90;;;;;;4970921;28;20577;-75
2022/04/05 07:45:52;;;;;;;2.47;1.40;;;7.60;99.90;;;;;;4986020;28;20254;-75
2022/04/05 07:48:26;;;;;;;3.08;1.20;;;7.60;99.90;;;;;;4987714;28;20046;-74
2022/04/05 07:50:52;;;;;;;3.25;0.90;;;7.60;99.90;;;;;;5000976;28;20570;-78
2022/04/05 07:53:18;;;;;;;3.53;1.15;;;7.60;99.90;;;;;;4971916;28;20081;-75
2022/04/05 07:55:44;;;;;;;4.03;1.20;;;7.60;99.90;;;;;;4987621;28;20137;-75
2022/04/05 07:58:09;;;;;;;2.28;1.08;;;7.50;99.90;;;;;;4955364;28;20038;-75
2022/04/05 08:00:36;;;;;;;2.03;1.05;;;8.00;99.90;;;;;;4970991;28;20057;-75
2022/04/05 08:03:01;;;;;;;2.72;1.00;;;7.50;99.90;;;;;;4987841;28;20043;-75
2022/04/05 08:05:27;;;;;;;2.80;0.90;;;7.50;99.90;;;;;;4972200;28;20046;-75
2022/04/05 08:07:54;;;;;;;2.65;1.10;;;7.50;99.90;;;;;;5003843;28;20449;-76
2022/04/05 08:10:20;;;;;;;2.70;1.00;;;7.50;99.90;;;;;;4988103;28;20145;-76
2022/04/05 08:12:48;;;;;;;2.03;0.80;;;7.50;99.90;;;;;;4971169;28;20046;-75
2022/04/05 08:15:23;;;;;;;3.00;1.10;;;7.60;99.90;;;;;;4987838;28;20520;-75
2022/04/05 08:17:50;;;;;;;3.67;0.80;;;7.60;99.90;;;;;;4970816;28;20047;-76
2022/04/05 08:20:16;;;;;;;2.05;0.90;;;7.80;99.90;;;;;;4986353;28;20062;-76
2022/04/05 08:22:43;;;;;;;2.53;0.80;;;7.60;99.90;;;;;;4986272;28;20526;-76
2022/04/05 08:25:10;;;;;;;2.38;0.80;;;7.60;99.90;;;;;;4956019;28;20085;-75
2022/04/05 08:27:37;;;;;;;0.77;0.68;;;7.70;99.90;;;;;;4987887;28;20129;-83
2022/04/05 08:30:05;;;;;;;1.63;0.60;;;7.80;99.90;;;;;;4955200;28;20077;-76
2022/04/05 08:32:31;;;;;;;1.80;0.80;;;7.80;99.90;;;;;;5003948;28;20125;-76
2022/04/05 08:34:57;;;;;;;2.00;0.80;;;7.80;99.90;;;;;;4987004;28;20046;-77
2022/04/05 08:37:23;;;;;;;2.13;1.10;;;7.80;99.90;;;;;;4971596;28;20043;-77
2022/04/05 08:39:49;;;;;;;1.77;1.00;;;7.80;99.90;;;;;;4986539;28;20046;-77
2022/04/05 08:42:15;;;;;;;3.92;1.20;;;7.80;99.90;;;;;;4985906;28;20046;-77
2022/04/05 08:44:44;;;;;;;1.13;0.70;;;7.80;99.90;;;;;;4987447;28;20057;-77
2022/04/05 08:47:12;;;;;;;2.40;0.80;;;7.90;99.90;;;;;;4987858;28;20042;-76
2022/04/05 08:49:38;;;;;;;1.70;1.00;;;7.90;99.90;;;;;;4987586;28;20057;-77
2022/04/05 08:52:05;;;;;;;0.90;0.60;;;8.00;99.90;;;;;;4972154;28;20069;-76
2022/04/05 08:54:31;;;;;;;2.50;0.77;;;8.10;99.90;;;;;;4991785;28;20058;-77
2022/04/05 08:56:57;;;;;;;0.73;0.68;;;8.20;99.90;;;;;;4991025;28;20050;-77
2022/04/05 08:59:22;;;;;;;0.95;0.68;;;8.10;99.90;;;;;;4959518;28;20112;-77
2022/04/05 09:01:50;;;;;;;1.42;0.80;;;8.20;99.90;;;;;;4974144;28;20474;-77
2022/04/05 09:04:15;;;;;;;1.75;0.88;;;8.20;99.90;;;;;;4958221;28;20057;-76
2022/04/05 09:06:41;;;;;;;1.17;0.60;;;8.20;99.90;;;;;;4991668;28;20399;-77
2022/04/05 09:09:16;;;;;;;2.97;1.00;;;8.20;99.90;;;;;;4974896;28;20077;-77
2022/04/05 09:11:44;;;;;;;1.93;0.70;;;8.30;99.90;;;;;;4991025;28;20050;-77
2022/04/05 09:14:09;;;;;;;2.45;1.05;;;8.20;99.90;;;;;;4989594;28;20138;-76
2022/04/05 09:16:36;;;;;;;1.10;0.70;;;8.20;99.90;;;;;;4991156;28;20125;-77
2022/04/05 09:19:15;;;;;;;1.00;0.70;;;8.30;99.90;;;;;;4989659;28;20117;-77
2022/04/05 09:22:00;;;;;;;1.05;0.80;;;8.50;99.90;;;;;;4958960;28;20046;-76
2022/04/05 09:24:37;;;;;;;3.03;1.10;;;8.30;99.90;;;;;;4981900;28;20050;-76
2022/04/05 09:27:04;;;;;;;6.50;1.38;;;8.30;99.90;;;;;;4990339;28;20468;-77
2022/04/05 09:29:51;;;;;;;2.65;1.15;;;8.30;99.90;;;;;;4991449;28;20093;-76
2022/04/05 09:32:39;;;;;;;3.47;1.15;;;8.40;99.90;;;;;;4990902;28;20115;-76
2022/04/05 09:35:06;;;;;;;5.22;1.10;;;8.30;99.90;;;;;;4990374;28;20042;-77
2022/04/05 09:37:36;;;;;;;2.05;1.00;;;8.30;99.90;;;;;;4990483;28;20125;-76
2022/04/05 09:40:21;;;;;;;1.55;0.80;;;8.30;99.90;;;;;;4943993;28;20062;-76
2022/04/05 09:43:08;;;;;;;1.73;0.70;;;8.30;99.90;;;;;;4982183;28;20518;-76
2022/04/05 09:45:58;;;;;;;1.13;0.68;;;8.30;99.90;;;;;;4990718;28;20525;-78
2022/04/05 09:48:33;;;;;;;1.98;0.68;;;8.50;99.90;;;;;;4975206;28;20054;-78
2022/04/05 09:51:12;;;;;;;1.20;0.70;;;8.60;99.90;;;;;;4975033;28;20061;-78
2022/04/05 09:53:57;;;;;;;0.95;0.60;;;8.80;99.90;;;;;;4990838;28;20126;-78
2022/04/05 09:56:38;;;;;;;1.20;0.70;;;8.90;99.90;;;;;;4990287;28;20053;-78
2022/04/05 09:59:18;;;;;;;0.65;0.65;;;9.10;99.90;;;;;;4957004;28;20057;-78
2022/04/05 10:01:46;;;;;;;1.05;0.90;;;9.20;99.90;;;;;;4973664;28;20050;-78
2022/04/05 10:04:17;;;;;;;1.30;0.75;;;9.20;99.90;;;;;;4973637;28;20047;-77
2022/04/05 10:06:46;;;;;;;1.88;1.08;;;9.20;99.90;;;;;;4991467;28;20050;-79
2022/04/05 10:09:18;;;;;;;3.42;1.20;;;9.30;99.90;;;;;;4972945;28;20046;-82
2022/04/05 10:11:45;;;;;;;2.20;1.20;;;9.40;99.90;;;;;;5004679;28;20511;-79
2022/04/05 10:14:13;;;;;;;2.28;1.20;;;9.50;99.90;;;;;;4988190;28;20054;-78
2022/04/05 10:16:39;;;;;;;1.63;0.90;;;9.50;99.90;;;;;;4972228;28;20125;-77
2022/04/05 10:19:10;;;;;;;2.08;1.30;;;9.60;99.90;;;;;;4988588;28;20754;-77
2022/04/05 10:21:38;;;;;;;1.90;0.90;;;9.70;99.90;;;;;;4973724;28;20392;-79
2022/04/05 10:24:06;;;;;;;2.30;1.23;;;9.70;99.90;;;;;;4989125;28;20633;-79
2022/04/05 10:26:38;;;;;;;2.53;1.45;;;9.60;99.90;;;;;;4974213;28;20050;-79
2022/04/05 10:29:09;;;;;;;3.65;1.50;;;9.80;99.90;;;;;;4973360;28;20046;-78
2022/04/05 10:31:42;;;;;;;2.80;1.40;;;10.00;99.90;;;;;;4989894;28;20054;-78
2022/04/05 10:34:26;;;;;;;4.30;1.90;;;10.10;99.90;;;;;;4989631;28;20542;-78
2022/04/05 10:37:12;;;;;;;3.67;1.70;;;10.10;99.90;;;;;;4988695;28;20146;-78
2022/04/05 10:39:39;;;;;;;3.42;2.00;;;10.30;99.90;;;;;;4988416;28;20132;-79
2022/04/05 10:42:07;;;;;;;3.33;2.03;;;10.60;99.90;;;;;;4972467;28;20491;-78
2022/04/05 10:44:34;;;;;;;3.65;2.17;;;10.70;99.90;;;;;;4990118;28;20050;-79
2022/04/05 10:47:01;;;;;;;3.67;2.20;;;10.80;99.90;;;;;;4957372;28;20112;-79
2022/04/05 10:49:44;;;;;;;3.35;1.95;;;10.90;99.90;;;;;;4990616;28;20101;-80
2022/04/05 10:52:27;;;;;;;3.40;2.30;;;10.90;99.90;;;;;;4990498;28;20161;-84
2022/04/05 10:55:08;;;;;;;3.50;2.50;;;10.80;99.90;;;;;;4988723;28;20480;-82
2022/04/05 10:57:39;;;;;;;3.45;2.25;;;10.60;99.90;;;;;;4990168;28;20054;-87
2022/04/05 11:00:12;;;;;;;5.68;2.78;;;10.60;99.90;;;;;;4987408;28;20042;-78
2022/04/05 11:02:38;;;;;;;4.63;2.97;;;10.60;99.90;;;;;;4988328;28;20065;-78
2022/04/05 11:05:24;;;;;;;4.95;2.90;;;10.60;99.90;;;;;;4988135;28;20062;-78
2022/04/05 11:07:59;;;;;;;;;;;10.40;99.90;;;;;;4988234;28;20054;-78
2022/04/05 11:10:48;;;;;;;5.57;3.03;;;10.50;99.90;;;;;;5004638;28;19921;-78
2022/04/05 11:13:31;;;;;;;6.40;3.20;;;10.30;99.90;;;;;;4986007;28;20117;-78
2022/04/05 11:15:57;;;;;;;8.13;4.45;;;10.30;99.90;;;;;;4986613;28;20396;-77
2022/04/05 11:18:26;;;;;;;7.43;3.83;;;10.20;99.90;;;;;;4970582;28;20058;-77
2022/04/05 11:20:54;;;;;;;9.45;4.30;;;10.10;99.90;;;;;;4987756;28;20109;-77
2022/04/05 11:23:40;;;;;;;7.68;4.10;;;10.10;99.90;;;;;;4947050;28;20751;-78
2022/04/05 11:26:30;;;;;;;9.30;4.25;;;10.10;99.90;;;;;;4988486;28;20054;-77
2022/04/05 11:28:57;;;;;;;9.25;4.85;;;10.10;99.90;;;;;;4988474;28;20046;-80
2022/04/05 11:31:27;;;;;;;10.27;4.88;;;10.00;99.90;;;;;;4989158;28;20491;-79
2022/04/05 11:33:53;;;;;;;10.07;4.43;;;9.90;99.90;;;;;;4987901;28;20049;-79
2022/04/05 11:36:23;;;;;;;9.57;4.65;;;9.90;99.90;;;;;;4973110;28;20058;-78
2022/04/05 11:38:57;;;;;;;11.45;5.38;;;9.90;99.90;;;;;;4988439;28;20046;-78
2022/04/05 11:41:25;;;;;;;13.63;5.13;;;9.90;99.90;;;;;;4972039;28;20479;-79
2022/04/05 11:43:59;;;;;;;9.70;4.97;;;9.80;99.90;;;;;;4989106;28;20429;-79
2022/04/05 11:46:30;;;;;;;12.50;5.55;;;9.70;99.90;;;;;;4989632;28;20046;-79
2022/04/05 11:48:58;;;;;;;14.45;5.07;;;9.60;99.90;;;;;;4972947;28;20050;-78
2022/04/05 11:51:29;;;;;;;10.98;5.45;;;9.60;99.90;;;;;;4988240;28;20054;-78
2022/04/05 11:54:16;;;;;;;12.13;5.10;;;9.60;99.90;;;;;;4987700;28;20089;-78
2022/04/05 11:56:42;;;;;;;19.15;5.72;;;9.60;99.90;;;;;;4972273;28;20057;-80
2022/04/05 11:59:11;;;;;;;13.63;5.47;;;9.60;99.90;;;;;;4970996;28;20043;-79
2022/04/05 12:01:39;;;;;;;14.57;4.63;;;9.60;99.90;;;;;;4963010;28;20046;-78
2022/04/05 12:04:09;;;;;;;17.65;5.45;;;9.60;99.90;;;;;;4962670;28;20057;-79
2022/04/05 12:06:38;;;;;;;19.05;5.55;;;9.60;99.90;;;;;;4987961;28;20495;-79
2022/04/05 12:09:26;;;;;;;18.05;5.38;;;9.60;99.90;;;;;;4968736;28;20199;-79
2022/04/05 12:11:53;;;;;;;27.25;5.93;;;9.60;99.90;;;;;;4970114;28;20058;-78
2022/04/05 12:14:24;;;;;;;16.30;5.88;;;9.50;99.90;;;;;;4971989;28;20051;-77
2022/04/05 12:16:59;;;;;;;20.05;6.30;;;9.50;99.90;;;;;;4987447;28;20523;-79
2022/04/05 12:19:35;;;;;;;26.58;6.85;;;9.40;99.90;;;;;;4985816;28;20090;-79
2022/04/05 12:22:07;;;;;;;18.73;6.65;;;9.40;99.90;;;;;;4970038;28;20034;-79
2022/04/05 12:24:36;;;;;;;17.17;5.85;;;9.30;99.90;;;;;;4987366;28;20065;-79
2022/04/05 12:27:04;;;;;;;19.33;6.25;;;9.40;99.90;;;;;;4971137;28;20129;-79
2022/04/05 12:29:31;;;;;;;17.50;5.90;;;9.40;99.90;;;;;;4963302;28;20581;-79
2022/04/05 12:32:11;;;;;;;19.25;6.55;;;9.40;99.90;;;;;;4987134;28;20168;-78
2022/04/05 12:34:38;;;;;;;15.52;5.70;;;9.50;99.90;;;;;;4986695;28;20057;-78
2022/04/05 12:37:12;;;;;;;19.67;6.28;;;9.50;99.90;;;;;;4971446;28;20056;-79
2022/04/05 12:39:42;;;;;;;21.23;6.68;;;9.60;99.90;;;;;;4987223;28;20407;-79
2022/04/05 12:42:09;;;;;;;19.52;6.85;;;9.50;99.90;;;;;;4986474;28;20050;-78
2022/04/05 12:44:41;;;;;;;19.85;6.80;;;9.50;99.90;;;;;;4971473;28;20452;-79
2022/04/05 12:47:13;;;;;;;25.40;7.18;;;9.50;99.90;;;;;;4979413;28;20574;-79
2022/04/05 12:49:43;;;;;;;20.60;7.22;;;9.50;99.90;;;;;;4970762;28;20047;-78
2022/04/05 12:52:15;;;;;;;19.67;6.70;;;9.50;99.90;;;;;;4986685;28;20050;-79
2022/04/05 12:55:01;;;;;;;22.48;6.72;;;9.50;99.90;;;;;;4987308;28;20050;-78
2022/04/05 12:57:38;;;;;;;16.05;6.13;;;9.50;99.90;;;;;;4986391;28;20425;-79
2022/04/05 13:00:13;;;;;;;16.95;6.65;;;9.60;99.90;;;;;;4955390;28;20081;-79
2022/04/05 13:02:41;;;;;;;19.40;6.07;;;9.60;99.90;;;;;;4971269;28;20058;-79